createdAt,value
2023-01-29T00:00:44.590Z,19
2023-01-29T00:01:44.589Z,23
2023-01-29T00:02:44.574Z,23
2023-01-29T00:03:44.590Z,23
2023-01-29T00:04:44.590Z,25
2023-01-29T00:05:44.590Z,21
2023-01-29T00:06:44.575Z,24
2023-01-29T00:07:44.638Z,22
2023-01-29T00:08:44.591Z,20
2023-01-29T00:09:44.575Z,19
2023-01-29T00:10:44.575Z,18
2023-01-29T00:11:44.590Z,19
2023-01-29T00:12:44.591Z,17
2023-01-29T00:13:44.575Z,19
2023-01-29T00:14:44.590Z,19
2023-01-29T00:15:44.590Z,21
2023-01-29T00:16:44.590Z,21
2023-01-29T00:17:44.575Z,19
2023-01-29T00:18:44.590Z,18
2023-01-29T00:19:44.590Z,20
2023-01-29T00:20:44.591Z,16
2023-01-29T00:21:44.575Z,24
2023-01-29T00:22:44.591Z,23
2023-01-29T00:23:44.592Z,21
2023-01-29T00:24:44.591Z,23
2023-01-29T00:25:44.576Z,22
2023-01-29T00:26:44.591Z,22
2023-01-29T00:27:44.592Z,20
2023-01-29T00:28:44.576Z,21
2023-01-29T00:29:44.576Z,22
2023-01-29T00:30:44.591Z,23
2023-01-29T00:31:44.592Z,20
2023-01-29T00:32:44.576Z,18
2023-01-29T00:33:44.656Z,17
2023-01-29T00:34:44.591Z,18
2023-01-29T00:35:44.591Z,18
2023-01-29T00:36:44.576Z,19
2023-01-29T00:37:44.592Z,21
2023-01-29T00:38:44.592Z,18
2023-01-29T00:39:44.592Z,23
2023-01-29T00:40:44.576Z,23
2023-01-29T00:41:44.592Z,21
2023-01-29T00:42:44.594Z,19
2023-01-29T00:43:44.592Z,18
2023-01-29T00:44:44.577Z,22
2023-01-29T00:45:44.592Z,19
2023-01-29T00:46:44.593Z,20
2023-01-29T00:47:44.592Z,17
2023-01-29T00:48:44.577Z,18
2023-01-29T00:49:44.592Z,18
2023-01-29T00:50:44.593Z,17
2023-01-29T00:51:44.577Z,18
2023-01-29T00:52:44.577Z,15
2023-01-29T00:53:44.592Z,17
2023-01-29T00:54:44.593Z,17
2023-01-29T00:55:44.577Z,16
2023-01-29T00:56:44.593Z,14
2023-01-29T00:57:44.593Z,16
2023-01-29T00:58:44.593Z,17
2023-01-29T00:59:44.578Z,15
2023-01-29T01:00:44.593Z,21
2023-01-29T01:01:44.593Z,22
2023-01-29T01:02:44.593Z,22
2023-01-29T01:03:44.578Z,21
2023-01-29T01:04:44.593Z,22
2023-01-29T01:05:44.594Z,23
2023-01-29T01:06:44.593Z,23
2023-01-29T01:07:44.578Z,21
2023-01-29T01:08:44.593Z,22
2023-01-29T01:09:44.594Z,22
2023-01-29T01:10:44.606Z,21
2023-01-29T01:11:44.578Z,20
2023-01-29T01:12:44.594Z,17
2023-01-29T01:13:44.594Z,19
2023-01-29T01:14:44.578Z,18
2023-01-29T01:15:44.578Z,22
2023-01-29T01:16:44.594Z,21
2023-01-29T01:17:44.594Z,20
2023-01-29T01:18:44.579Z,20
2023-01-29T01:19:44.594Z,25
2023-01-29T01:20:44.594Z,25
2023-01-29T01:21:44.594Z,22
2023-01-29T01:22:44.579Z,20
2023-01-29T01:23:44.594Z,17
2023-01-29T01:24:44.594Z,17
2023-01-29T01:25:44.594Z,17
2023-01-29T01:26:44.579Z,19
2023-01-29T01:27:44.594Z,19
2023-01-29T01:28:44.595Z,20
2023-01-29T01:29:44.594Z,21
2023-01-29T01:30:44.579Z,24
2023-01-29T01:31:44.659Z,20
2023-01-29T01:32:44.595Z,22
2023-01-29T01:33:44.579Z,25
2023-01-29T01:34:44.579Z,20
2023-01-29T01:35:44.595Z,23
2023-01-29T01:36:44.595Z,21
2023-01-29T01:37:44.580Z,20
2023-01-29T01:38:44.595Z,21
2023-01-29T01:39:44.595Z,20
2023-01-29T01:40:44.595Z,18
2023-01-29T01:41:44.580Z,20
2023-01-29T01:42:44.595Z,18
2023-01-29T01:43:44.595Z,20
2023-01-29T01:44:44.595Z,22
2023-01-29T01:45:44.580Z,23
2023-01-29T01:46:44.595Z,21
2023-01-29T01:47:44.596Z,21
2023-01-29T01:48:44.595Z,21
2023-01-29T01:49:44.580Z,21
2023-01-29T01:50:44.596Z,20
2023-01-29T01:51:44.596Z,22
2023-01-29T01:52:44.580Z,21
2023-01-29T01:53:44.580Z,22
2023-01-29T01:54:44.596Z,21
2023-01-29T01:55:44.596Z,17
2023-01-29T01:56:44.581Z,18
2023-01-29T01:57:44.581Z,14
2023-01-29T01:58:44.596Z,13
2023-01-29T01:59:44.596Z,12
2023-01-29T02:00:44.581Z,16
2023-01-29T02:01:44.596Z,14
2023-01-29T02:02:44.596Z,11
2023-01-29T02:03:44.596Z,10
2023-01-29T02:04:44.581Z,13
2023-01-29T02:05:44.596Z,10
2023-01-29T02:06:44.623Z,9
2023-01-29T02:07:44.596Z,12
2023-01-29T02:08:44.581Z,13
2023-01-29T02:09:44.597Z,13
2023-01-29T02:10:44.597Z,12
2023-01-29T02:11:44.597Z,11
2023-01-29T02:12:44.582Z,11
2023-01-29T02:13:44.597Z,11
2023-01-29T02:14:44.598Z,11
2023-01-29T02:15:44.609Z,15
2023-01-29T02:16:44.582Z,13
2023-01-29T02:17:44.597Z,13
2023-01-29T02:18:44.597Z,13
2023-01-29T02:19:44.582Z,12
2023-01-29T02:20:44.582Z,15
2023-01-29T02:21:44.597Z,16
2023-01-29T02:22:44.598Z,19
2023-01-29T02:23:44.582Z,18
2023-01-29T02:24:44.597Z,16
2023-01-29T02:25:44.597Z,15
2023-01-29T02:26:44.597Z,18
2023-01-29T02:27:44.582Z,18
2023-01-29T02:28:44.598Z,17
2023-01-29T02:29:44.598Z,15
2023-01-29T02:30:44.598Z,15
2023-01-29T02:31:44.583Z,16
2023-01-29T02:32:44.598Z,16
2023-01-29T02:33:44.598Z,14
2023-01-29T02:34:44.598Z,14
2023-01-29T02:35:44.583Z,17
2023-01-29T02:36:44.622Z,13
2023-01-29T02:37:44.599Z,13
2023-01-29T02:38:44.583Z,16
2023-01-29T02:39:44.583Z,15
2023-01-29T02:40:44.598Z,14
2023-01-29T02:41:44.599Z,15
2023-01-29T02:42:44.583Z,16
2023-01-29T02:43:44.599Z,16
2023-01-29T02:44:44.598Z,15
2023-01-29T02:45:44.598Z,19
2023-01-29T02:46:44.584Z,17
2023-01-29T02:47:44.599Z,16
2023-01-29T02:48:44.599Z,14
2023-01-29T02:49:44.599Z,15
2023-01-29T02:50:44.584Z,13
2023-01-29T02:51:44.599Z,13
2023-01-29T02:52:44.599Z,13
2023-01-29T02:53:44.599Z,15
2023-01-29T02:54:44.584Z,15
2023-01-29T02:55:44.599Z,15
2023-01-29T02:56:44.600Z,13
2023-01-29T02:57:44.584Z,15
2023-01-29T02:58:44.584Z,18
2023-01-29T02:59:44.599Z,17
2023-01-29T03:00:44.600Z,23
2023-01-29T03:01:44.584Z,19
2023-01-29T03:02:44.664Z,16
2023-01-29T03:03:44.599Z,18
2023-01-29T03:04:44.599Z,14
2023-01-29T03:05:44.584Z,15
2023-01-29T03:06:50.626Z,16
2023-01-29T03:07:44.600Z,15
2023-01-29T03:08:44.600Z,15
2023-01-29T03:09:44.585Z,16
2023-01-29T03:10:44.600Z,15
2023-01-29T03:11:44.600Z,17
2023-01-29T03:12:44.600Z,17
2023-01-29T03:13:44.585Z,17
2023-01-29T03:14:44.600Z,18
2023-01-29T03:15:44.601Z,18
2023-01-29T03:16:44.600Z,20
2023-01-29T03:17:44.585Z,17
2023-01-29T03:18:44.600Z,17
2023-01-29T03:19:44.601Z,15
2023-01-29T03:20:44.585Z,15
2023-01-29T03:21:44.585Z,18
2023-01-29T03:22:44.600Z,16
2023-01-29T03:23:44.601Z,15
2023-01-29T03:24:44.585Z,13
2023-01-29T03:25:44.665Z,13
2023-01-29T03:26:44.600Z,12
2023-01-29T03:27:44.601Z,13
2023-01-29T03:28:44.586Z,13
2023-01-29T03:29:44.601Z,15
2023-01-29T03:30:44.601Z,15
2023-01-29T03:31:44.601Z,17
2023-01-29T03:32:44.586Z,13
2023-01-29T03:33:44.601Z,14
2023-01-29T03:34:44.601Z,12
2023-01-29T03:35:44.601Z,15
2023-01-29T03:36:44.586Z,16
2023-01-29T03:37:44.601Z,16
2023-01-29T03:38:44.602Z,18
2023-01-29T03:39:44.601Z,18
2023-01-29T03:40:44.586Z,16
2023-01-29T03:41:44.601Z,17
2023-01-29T03:42:44.602Z,15
2023-01-29T03:43:44.586Z,15
2023-01-29T03:44:44.586Z,14
2023-01-29T03:45:44.602Z,15
2023-01-29T03:46:44.602Z,17
2023-01-29T03:47:44.587Z,15
2023-01-29T03:48:44.602Z,17
2023-01-29T03:49:44.602Z,18
2023-01-29T03:50:44.602Z,16
2023-01-29T03:51:44.587Z,15
2023-01-29T03:52:44.602Z,12
2023-01-29T03:53:44.602Z,13
2023-01-29T03:54:44.602Z,15
2023-01-29T03:55:44.602Z,12
2023-01-29T03:56:44.602Z,14
2023-01-29T03:57:44.603Z,12
2023-01-29T03:58:44.602Z,12
2023-01-29T03:59:44.587Z,12
2023-01-29T04:00:44.602Z,15
2023-01-29T04:01:44.603Z,13
2023-01-29T04:02:44.587Z,11
2023-01-29T04:03:44.587Z,10
2023-01-29T04:04:44.602Z,13
2023-01-29T04:05:44.603Z,13
2023-01-29T04:06:48.360Z,15
2023-01-29T04:07:44.588Z,12
2023-01-29T04:08:44.603Z,15
2023-01-29T04:09:44.603Z,10
2023-01-29T04:10:44.588Z,10
2023-01-29T04:11:44.603Z,14
2023-01-29T04:12:44.603Z,14
2023-01-29T04:13:44.603Z,13
2023-01-29T04:14:44.588Z,13
2023-01-29T04:15:44.603Z,14
2023-01-29T04:16:44.603Z,13
2023-01-29T04:17:44.603Z,13
2023-01-29T04:18:44.588Z,12
2023-01-29T04:19:44.603Z,13
2023-01-29T04:20:44.604Z,14
2023-01-29T04:21:44.603Z,14
2023-01-29T04:22:44.588Z,15
2023-01-29T04:23:44.603Z,13
2023-01-29T04:24:44.604Z,12
2023-01-29T04:25:44.588Z,12
2023-01-29T04:26:44.589Z,12
2023-01-29T04:27:44.603Z,12
2023-01-29T04:28:44.604Z,11
2023-01-29T04:29:44.589Z,11
2023-01-29T04:30:44.589Z,14
2023-01-29T04:31:44.604Z,15
2023-01-29T04:32:44.604Z,14
2023-01-29T04:33:44.589Z,18
2023-01-29T04:34:44.604Z,16
2023-01-29T04:35:44.604Z,17
2023-01-29T04:36:44.604Z,18
2023-01-29T04:37:44.589Z,18
2023-01-29T04:38:44.604Z,20
2023-01-29T04:39:44.605Z,15
2023-01-29T04:40:44.604Z,15
2023-01-29T04:41:44.589Z,16
2023-01-29T04:42:44.604Z,19
2023-01-29T04:43:44.605Z,15
2023-01-29T04:44:44.589Z,20
2023-01-29T04:45:44.589Z,20
2023-01-29T04:46:44.604Z,16
2023-01-29T04:47:44.605Z,16
2023-01-29T04:48:44.590Z,16
2023-01-29T04:49:44.590Z,17
2023-01-29T04:50:44.605Z,16
2023-01-29T04:51:44.605Z,15
2023-01-29T04:52:44.590Z,14
2023-01-29T04:53:44.605Z,13
2023-01-29T04:54:44.605Z,14
2023-01-29T04:55:44.605Z,13
2023-01-29T04:56:44.590Z,14
2023-01-29T04:57:44.605Z,13
2023-01-29T04:58:44.609Z,11
2023-01-29T04:59:44.605Z,11
2023-01-29T05:00:44.590Z,12
2023-01-29T05:01:44.605Z,12
2023-01-29T05:02:44.606Z,16
2023-01-29T05:03:44.605Z,12
2023-01-29T05:04:44.590Z,13
2023-01-29T05:05:44.605Z,14
2023-01-29T05:06:44.606Z,13
2023-01-29T05:07:44.591Z,13
2023-01-29T05:08:44.591Z,13
2023-01-29T05:09:44.606Z,13
2023-01-29T05:10:44.606Z,13
2023-01-29T05:11:44.591Z,16
2023-01-29T05:12:44.654Z,15
2023-01-29T05:13:44.606Z,16
2023-01-29T05:14:44.606Z,16
2023-01-29T05:15:44.591Z,20
2023-01-29T05:16:44.606Z,16
2023-01-29T05:17:44.606Z,18
2023-01-29T05:18:44.606Z,19
2023-01-29T05:19:44.591Z,18
2023-01-29T05:20:44.606Z,20
2023-01-29T05:21:44.606Z,21
2023-01-29T05:22:44.606Z,21
2023-01-29T05:23:44.591Z,21
2023-01-29T05:24:44.606Z,19
2023-01-29T05:25:44.607Z,19
2023-01-29T05:26:44.606Z,19
2023-01-29T05:27:44.591Z,22
2023-01-29T05:28:44.606Z,21
2023-01-29T05:29:44.607Z,26
2023-01-29T05:30:44.592Z,23
2023-01-29T05:31:44.592Z,21
2023-01-29T05:32:44.607Z,21
2023-01-29T05:33:44.607Z,20
2023-01-29T05:34:44.592Z,17
2023-01-29T05:35:44.592Z,17
2023-01-29T05:36:44.607Z,19
2023-01-29T05:37:44.607Z,20
2023-01-29T05:38:44.592Z,21
2023-01-29T05:39:44.607Z,21
2023-01-29T05:40:44.607Z,19
2023-01-29T05:41:44.607Z,19
2023-01-29T05:42:44.592Z,18
2023-01-29T05:43:44.607Z,18
2023-01-29T05:44:44.608Z,20
2023-01-29T05:45:44.607Z,20
2023-01-29T05:46:44.592Z,21
2023-01-29T05:47:44.607Z,18
2023-01-29T05:48:44.608Z,18
2023-01-29T05:49:44.607Z,16
2023-01-29T05:50:44.593Z,15
2023-01-29T05:51:44.607Z,16
2023-01-29T05:52:44.608Z,15
2023-01-29T05:53:44.593Z,14
2023-01-29T05:54:44.593Z,13
2023-01-29T05:55:44.608Z,13
2023-01-29T05:56:44.632Z,14
2023-01-29T05:57:44.593Z,13
2023-01-29T05:58:44.608Z,15
2023-01-29T05:59:44.608Z,15
2023-01-29T06:00:44.608Z,16
2023-01-29T06:01:44.593Z,18
2023-01-29T06:02:44.608Z,18
2023-01-29T06:03:44.650Z,17
2023-01-29T06:04:44.608Z,14
2023-01-29T06:05:44.593Z,16
2023-01-29T06:06:44.608Z,13
2023-01-29T06:07:44.609Z,16
2023-01-29T06:08:44.608Z,16
2023-01-29T06:09:44.593Z,15
2023-01-29T06:10:44.608Z,16
2023-01-29T06:11:44.609Z,13
2023-01-29T06:12:44.594Z,12
2023-01-29T06:13:44.594Z,12
2023-01-29T06:14:44.608Z,13
2023-01-29T06:15:44.609Z,10
2023-01-29T06:16:44.594Z,10
2023-01-29T06:17:44.657Z,10
2023-01-29T06:18:44.609Z,11
2023-01-29T06:19:44.609Z,10
2023-01-29T06:20:44.594Z,14
2023-01-29T06:21:44.609Z,14
2023-01-29T06:22:44.609Z,13
2023-01-29T06:23:44.609Z,13
2023-01-29T06:24:44.609Z,12
2023-01-29T06:25:44.609Z,14
2023-01-29T06:26:44.610Z,16
2023-01-29T06:27:44.609Z,16
2023-01-29T06:28:44.594Z,15
2023-01-29T06:29:44.609Z,16
2023-01-29T06:30:44.610Z,17
2023-01-29T06:31:44.609Z,19
2023-01-29T06:32:44.595Z,19
2023-01-29T06:33:44.674Z,21
2023-01-29T06:34:44.610Z,16
2023-01-29T06:35:44.595Z,17
2023-01-29T06:37:44.610Z,17
2023-01-29T06:38:44.610Z,17
2023-01-29T06:39:44.595Z,17
2023-01-29T06:40:44.610Z,17
2023-01-29T06:41:44.610Z,17
2023-01-29T06:42:44.610Z,17
2023-01-29T06:43:44.595Z,16
2023-01-29T06:44:44.610Z,19
2023-01-29T06:45:44.610Z,15
2023-01-29T06:46:44.610Z,15
2023-01-29T06:47:44.595Z,13
2023-01-29T06:48:44.610Z,13
2023-01-29T06:49:44.611Z,14
2023-01-29T06:50:44.610Z,14
2023-01-29T06:51:44.595Z,17
2023-01-29T06:52:44.610Z,15
2023-01-29T06:53:44.611Z,16
2023-01-29T06:54:44.596Z,17
2023-01-29T06:55:44.596Z,20
2023-01-29T06:56:44.610Z,15
2023-01-29T06:57:44.611Z,14
2023-01-29T06:58:44.596Z,12
2023-01-29T06:59:44.596Z,14
2023-01-29T07:00:44.611Z,18
2023-01-29T07:01:44.611Z,16
2023-01-29T07:02:44.596Z,15
2023-01-29T07:03:44.611Z,15
2023-01-29T07:04:44.611Z,14
2023-01-29T07:05:44.611Z,17
2023-01-29T07:06:44.596Z,14
2023-01-29T07:07:44.611Z,16
2023-01-29T07:08:44.653Z,14
2023-01-29T07:09:44.611Z,15
2023-01-29T07:10:44.596Z,15
2023-01-29T07:11:44.611Z,15
2023-01-29T07:12:44.612Z,16
2023-01-29T07:13:44.611Z,15
2023-01-29T07:14:44.597Z,21
2023-01-29T07:15:44.611Z,20
2023-01-29T07:16:44.612Z,15
2023-01-29T07:17:44.597Z,18
2023-01-29T07:18:44.597Z,18
2023-01-29T07:19:44.611Z,18
2023-01-29T07:20:44.612Z,17
2023-01-29T07:21:44.597Z,23
2023-01-29T07:22:44.612Z,21
2023-01-29T07:23:44.612Z,19
2023-01-29T07:24:44.612Z,19
2023-01-29T07:25:44.597Z,16
2023-01-29T07:26:44.612Z,21
2023-01-29T07:27:44.612Z,22
2023-01-29T07:28:44.612Z,18
2023-01-29T07:29:44.597Z,23
2023-01-29T07:30:44.612Z,20
2023-01-29T07:31:44.613Z,17
2023-01-29T07:32:44.612Z,15
2023-01-29T07:33:44.597Z,20
2023-01-29T07:34:44.612Z,20
2023-01-29T07:35:44.613Z,14
2023-01-29T07:36:44.612Z,14
2023-01-29T07:37:44.598Z,15
2023-01-29T07:38:44.612Z,17
2023-01-29T07:39:44.613Z,18
2023-01-29T07:40:44.598Z,19
2023-01-29T07:41:44.598Z,17
2023-01-29T07:42:44.612Z,19
2023-01-29T07:43:44.637Z,18
2023-01-29T07:44:44.598Z,23
2023-01-29T07:45:44.613Z,23
2023-01-29T07:46:44.613Z,21
2023-01-29T07:47:44.613Z,16
2023-01-29T07:48:44.598Z,17
2023-01-29T07:49:44.613Z,19
2023-01-29T07:50:44.639Z,15
2023-01-29T07:51:44.613Z,18
2023-01-29T07:52:44.598Z,18
2023-01-29T07:53:44.613Z,18
2023-01-29T07:54:44.614Z,25
2023-01-29T07:55:44.613Z,23
2023-01-29T07:56:44.599Z,22
2023-01-29T07:57:44.662Z,20
2023-01-29T07:58:44.614Z,20
2023-01-29T07:59:44.599Z,18
2023-01-29T08:00:44.599Z,19
2023-01-29T08:01:44.613Z,18
2023-01-29T08:02:44.614Z,17
2023-01-29T08:03:44.599Z,25
2023-01-29T08:04:44.614Z,25
2023-01-29T08:05:44.614Z,22
2023-01-29T08:06:44.614Z,20
2023-01-29T08:07:44.599Z,23
2023-01-29T08:08:44.614Z,23
2023-01-29T08:09:44.614Z,20
2023-01-29T08:10:44.614Z,19
2023-01-29T08:11:44.599Z,25
2023-01-29T08:12:44.614Z,20
2023-01-29T08:13:44.615Z,17
2023-01-29T08:14:44.614Z,16
2023-01-29T08:15:44.600Z,22
2023-01-29T08:16:44.614Z,19
2023-01-29T08:17:44.615Z,21
2023-01-29T08:18:44.600Z,16
2023-01-29T08:19:44.600Z,19
2023-01-29T08:20:44.614Z,23
2023-01-29T08:21:44.615Z,25
2023-01-29T08:22:44.600Z,18
2023-01-29T08:23:44.655Z,18
2023-01-29T08:24:44.615Z,21
2023-01-29T08:25:44.615Z,18
2023-01-29T08:26:44.600Z,22
2023-01-29T08:27:44.615Z,18
2023-01-29T08:28:44.615Z,21
2023-01-29T08:29:44.615Z,22
2023-01-29T08:30:44.600Z,23
2023-01-29T08:31:44.615Z,23
2023-01-29T08:32:44.617Z,24
2023-01-29T08:33:44.615Z,21
2023-01-29T08:34:44.601Z,21
2023-01-29T08:35:44.615Z,23
2023-01-29T08:36:44.616Z,21
2023-01-29T08:37:44.615Z,22
2023-01-29T08:38:44.601Z,26
2023-01-29T08:39:44.615Z,21
2023-01-29T08:40:44.616Z,25
2023-01-29T08:41:44.601Z,26
2023-01-29T08:42:44.601Z,26
2023-01-29T08:43:44.616Z,23
2023-01-29T08:44:44.616Z,27
2023-01-29T08:45:44.601Z,26
2023-01-29T08:46:44.640Z,25
2023-01-29T08:47:44.616Z,22
2023-01-29T08:48:44.616Z,21
2023-01-29T08:49:44.601Z,21
2023-01-29T08:50:44.616Z,23
2023-01-29T08:51:44.616Z,28
2023-01-29T08:52:44.616Z,25
2023-01-29T08:53:44.602Z,30
2023-01-29T08:54:44.616Z,27
2023-01-29T08:55:44.617Z,21
2023-01-29T08:56:44.616Z,25
2023-01-29T08:57:44.602Z,28
2023-01-29T08:58:44.616Z,26
2023-01-29T08:59:44.617Z,27
2023-01-29T09:00:44.628Z,25
2023-01-29T09:01:44.602Z,26
2023-01-29T09:02:44.617Z,31
2023-01-29T09:03:44.617Z,26
2023-01-29T09:04:44.602Z,25
2023-01-29T09:05:44.602Z,27
2023-01-29T09:06:44.617Z,29
2023-01-29T09:07:44.641Z,27
2023-01-29T09:08:44.602Z,25
2023-01-29T09:09:44.617Z,31
2023-01-29T09:10:44.617Z,31
2023-01-29T09:11:44.617Z,30
2023-01-29T09:12:44.603Z,31
2023-01-29T09:13:44.617Z,30
2023-01-29T09:14:44.643Z,28
2023-01-29T09:15:44.617Z,29
2023-01-29T09:16:44.603Z,28
2023-01-29T09:17:44.617Z,29
2023-01-29T09:18:44.618Z,27
2023-01-29T09:19:44.618Z,29
2023-01-29T09:20:44.603Z,29
2023-01-29T09:21:44.618Z,29
2023-01-29T09:22:44.618Z,32
2023-01-29T09:23:44.603Z,32
2023-01-29T09:24:44.603Z,29
2023-01-29T09:25:44.618Z,34
2023-01-29T09:26:44.618Z,32
2023-01-29T09:27:44.603Z,27
2023-01-29T09:28:44.603Z,32
2023-01-29T09:29:44.618Z,28
2023-01-29T09:30:44.618Z,40
2023-01-29T09:31:44.604Z,34
2023-01-29T09:32:44.618Z,30
2023-01-29T09:34:44.618Z,34
2023-01-29T09:35:44.604Z,30
2023-01-29T09:36:44.618Z,34
2023-01-29T09:37:44.619Z,30
2023-01-29T09:38:44.618Z,39
2023-01-29T09:39:44.604Z,34
2023-01-29T09:40:44.619Z,35
2023-01-29T09:41:44.619Z,36
2023-01-29T09:42:44.619Z,36
2023-01-29T09:43:44.604Z,45
2023-01-29T09:44:44.619Z,38
2023-01-29T09:45:44.619Z,38
2023-01-29T09:46:44.605Z,31
2023-01-29T09:47:44.605Z,30
2023-01-29T09:48:44.619Z,34
2023-01-29T09:49:44.644Z,29
2023-01-29T09:50:44.605Z,30
2023-01-29T09:51:44.619Z,26
2023-01-29T09:52:44.619Z,29
2023-01-29T09:53:44.619Z,29
2023-01-29T09:54:44.605Z,27
2023-01-29T09:55:44.620Z,26
2023-01-29T09:56:44.646Z,28
2023-01-29T09:57:44.620Z,27
2023-01-29T09:58:44.605Z,29
2023-01-29T09:59:44.620Z,22
2023-01-29T10:00:44.621Z,29
2023-01-29T10:01:44.620Z,34
2023-01-29T10:02:44.605Z,36
2023-01-29T10:03:44.620Z,30
2023-01-29T10:04:44.621Z,26
2023-01-29T10:05:44.606Z,40
2023-01-29T10:06:44.606Z,38
2023-01-29T10:07:44.621Z,33
2023-01-29T10:08:44.621Z,28
2023-01-29T10:09:44.606Z,27
2023-01-29T10:10:44.621Z,33
2023-01-29T10:11:44.621Z,31
2023-01-29T10:12:44.621Z,31
2023-01-29T10:13:44.606Z,29
2023-01-29T10:14:44.621Z,29
2023-01-29T10:15:44.621Z,22
2023-01-29T10:16:44.621Z,21
2023-01-29T10:17:44.607Z,22
2023-01-29T10:18:44.621Z,22
2023-01-29T10:19:44.622Z,19
2023-01-29T10:20:44.621Z,26
2023-01-29T10:21:44.607Z,23
2023-01-29T10:22:44.621Z,18
2023-01-29T10:23:44.622Z,21
2023-01-29T10:24:44.607Z,22
2023-01-29T10:25:44.607Z,20
2023-01-29T10:26:44.622Z,22
2023-01-29T10:27:44.623Z,23
2023-01-29T10:28:44.607Z,21
2023-01-29T10:29:44.607Z,28
2023-01-29T10:30:44.622Z,32
2023-01-29T10:31:44.623Z,22
2023-01-29T10:32:44.608Z,22
2023-01-29T10:33:44.622Z,21
2023-01-29T10:34:44.622Z,30
2023-01-29T10:35:44.622Z,33
2023-01-29T10:36:44.608Z,29
2023-01-29T10:37:44.623Z,25
2023-01-29T10:38:44.623Z,29
2023-01-29T10:39:44.623Z,27
2023-01-29T10:40:44.608Z,23
2023-01-29T10:41:44.623Z,23
2023-01-29T10:42:44.623Z,23
2023-01-29T10:43:44.623Z,27
2023-01-29T10:44:44.609Z,28
2023-01-29T10:45:44.623Z,27
2023-01-29T10:46:44.624Z,19
2023-01-29T10:47:44.609Z,20
2023-01-29T10:48:44.609Z,18
2023-01-29T10:49:44.623Z,21
2023-01-29T10:50:44.624Z,21
2023-01-29T10:51:44.609Z,31
2023-01-29T10:52:44.609Z,33
2023-01-29T10:53:44.624Z,26
2023-01-29T10:54:44.624Z,16
2023-01-29T10:55:44.609Z,15
2023-01-29T10:56:44.624Z,17
2023-01-29T10:57:44.624Z,19
2023-01-29T10:58:44.624Z,20
2023-01-29T10:59:44.610Z,23
2023-01-29T11:00:44.624Z,17
2023-01-29T11:01:44.625Z,22
2023-01-29T11:02:44.625Z,21
2023-01-29T11:03:44.610Z,24
2023-01-29T11:04:44.625Z,22
2023-01-29T11:05:44.625Z,22
2023-01-29T11:06:44.625Z,26
2023-01-29T11:07:44.610Z,29
2023-01-29T11:08:44.625Z,28
2023-01-29T11:09:44.626Z,29
2023-01-29T11:10:44.611Z,27
2023-01-29T11:11:44.611Z,27
2023-01-29T11:12:44.625Z,26
2023-01-29T11:13:44.650Z,25
2023-01-29T11:14:44.611Z,25
2023-01-29T11:15:44.626Z,26
2023-01-29T11:16:44.626Z,22
2023-01-29T11:17:44.626Z,30
2023-01-29T11:18:44.611Z,25
2023-01-29T11:19:44.626Z,24
2023-01-29T11:20:44.652Z,27
2023-01-29T11:21:44.626Z,30
2023-01-29T11:22:44.612Z,30
2023-01-29T11:23:44.626Z,29
2023-01-29T11:24:44.627Z,28
2023-01-29T11:25:44.626Z,27
2023-01-29T11:26:44.612Z,27
2023-01-29T11:27:50.612Z,29
2023-01-29T11:28:44.628Z,26
2023-01-29T11:29:44.612Z,24
2023-01-29T11:30:44.612Z,24
2023-01-29T11:31:44.627Z,29
2023-01-29T11:32:44.628Z,28
2023-01-29T11:33:44.613Z,30
2023-01-29T11:34:44.613Z,29
2023-01-29T11:35:44.627Z,34
2023-01-29T11:36:44.627Z,35
2023-01-29T11:37:44.613Z,27
2023-01-29T11:38:44.628Z,29
2023-01-29T11:39:44.628Z,31
2023-01-29T11:40:44.628Z,37
2023-01-29T11:41:44.614Z,32
2023-01-29T11:42:44.628Z,29
2023-01-29T11:43:44.670Z,24
2023-01-29T11:44:44.628Z,23
2023-01-29T11:45:44.614Z,25
2023-01-29T11:46:44.628Z,22
2023-01-29T11:47:44.629Z,22
2023-01-29T11:48:44.629Z,28
2023-01-29T11:49:44.614Z,32
2023-01-29T11:50:44.638Z,32
2023-01-29T11:51:44.630Z,35
2023-01-29T11:52:44.615Z,30
2023-01-29T11:53:44.615Z,30
2023-01-29T11:54:44.629Z,29
2023-01-29T11:55:44.630Z,32
2023-01-29T11:56:44.615Z,32
2023-01-29T11:57:44.630Z,37
2023-01-29T11:58:44.630Z,42
2023-01-29T11:59:44.630Z,44
2023-01-29T12:00:44.616Z,35
2023-01-29T12:01:44.630Z,40
2023-01-29T12:02:44.630Z,37
2023-01-29T12:03:44.630Z,40
2023-01-29T12:04:44.616Z,33
2023-01-29T12:05:44.630Z,35
2023-01-29T12:06:44.631Z,32
2023-01-29T12:07:44.630Z,33
2023-01-29T12:08:44.616Z,42
2023-01-29T12:09:44.631Z,38
2023-01-29T12:10:44.632Z,43
2023-01-29T12:11:44.631Z,42
2023-01-29T12:12:44.617Z,43
2023-01-29T12:13:44.631Z,37
2023-01-29T12:14:44.632Z,36
2023-01-29T12:15:44.617Z,30
2023-01-29T12:16:44.617Z,31
2023-01-29T12:17:44.632Z,29
2023-01-29T12:18:44.632Z,42
2023-01-29T12:19:44.617Z,45
2023-01-29T12:20:44.632Z,33
2023-01-29T12:21:44.632Z,30
2023-01-29T12:22:44.632Z,29
2023-01-29T12:23:44.618Z,29
2023-01-29T12:24:44.632Z,29
2023-01-29T12:25:44.632Z,32
2023-01-29T12:26:44.632Z,32
2023-01-29T12:27:48.383Z,32
2023-01-29T12:28:44.633Z,35
2023-01-29T12:29:44.634Z,28
2023-01-29T12:30:44.633Z,32
2023-01-29T12:31:44.619Z,29
2023-01-29T12:32:44.633Z,27
2023-01-29T12:33:44.634Z,22
2023-01-29T12:34:44.633Z,22
2023-01-29T12:35:44.619Z,21
2023-01-29T12:36:44.634Z,24
2023-01-29T12:37:44.635Z,30
2023-01-29T12:38:44.620Z,27
2023-01-29T12:39:44.620Z,34
2023-01-29T12:40:44.634Z,33
2023-01-29T12:41:44.635Z,35
2023-01-29T12:42:44.620Z,22
2023-01-29T12:43:44.635Z,34
2023-01-29T12:44:44.635Z,32
2023-01-29T12:45:44.635Z,36
2023-01-29T12:46:44.621Z,31
2023-01-29T12:47:44.635Z,29
2023-01-29T12:48:44.635Z,28
2023-01-29T12:49:44.635Z,37
2023-01-29T12:50:44.621Z,35
2023-01-29T12:51:44.635Z,35
2023-01-29T12:52:44.636Z,32
2023-01-29T12:53:44.635Z,31
2023-01-29T12:54:44.621Z,36
2023-01-29T12:55:44.636Z,36
2023-01-29T12:56:44.637Z,31
2023-01-29T12:57:44.622Z,29
2023-01-29T12:58:44.622Z,37
2023-01-29T12:59:44.636Z,34
2023-01-29T13:00:44.637Z,31
2023-01-29T13:01:44.622Z,25
2023-01-29T13:02:44.622Z,27
2023-01-29T13:03:44.637Z,31
2023-01-29T13:04:44.637Z,30
2023-01-29T13:05:44.623Z,44
2023-01-29T13:06:44.637Z,35
2023-01-29T13:07:44.637Z,40
2023-01-29T13:08:44.637Z,40
2023-01-29T13:09:44.623Z,40
2023-01-29T13:10:44.637Z,47
2023-01-29T13:11:44.638Z,49
2023-01-29T13:12:44.637Z,44
2023-01-29T13:13:44.623Z,33
2023-01-29T13:14:44.638Z,36
2023-01-29T13:15:44.638Z,41
2023-01-29T13:16:44.638Z,36
2023-01-29T13:17:44.624Z,33
2023-01-29T13:18:44.638Z,34
2023-01-29T13:19:44.639Z,43
2023-01-29T13:20:44.624Z,37
2023-01-29T13:21:44.624Z,34
2023-01-29T13:22:44.638Z,36
2023-01-29T13:23:44.639Z,35
2023-01-29T13:24:44.624Z,33
2023-01-29T13:25:44.639Z,32
2023-01-29T13:26:44.639Z,30
2023-01-29T13:27:44.639Z,36
2023-01-29T13:28:44.625Z,33
2023-01-29T13:29:44.639Z,38
2023-01-29T13:30:44.639Z,41
2023-01-29T13:31:44.639Z,30
2023-01-29T13:32:44.625Z,30
2023-01-29T13:33:44.640Z,34
2023-01-29T13:34:44.640Z,26
2023-01-29T13:35:44.640Z,27
2023-01-29T13:36:44.626Z,21
2023-01-29T13:37:44.640Z,25
2023-01-29T13:38:44.641Z,21
2023-01-29T13:39:44.640Z,27
2023-01-29T13:40:44.626Z,35
2023-01-29T13:41:44.640Z,29
2023-01-29T13:42:44.641Z,30
2023-01-29T13:43:44.641Z,30
2023-01-29T13:44:44.627Z,32
2023-01-29T13:45:44.641Z,41
2023-01-29T13:46:44.642Z,43
2023-01-29T13:47:44.627Z,48
2023-01-29T13:48:44.627Z,56
2023-01-29T13:49:44.641Z,52
2023-01-29T13:50:44.642Z,55
2023-01-29T13:51:44.627Z,50
2023-01-29T13:52:44.642Z,55
2023-01-29T13:53:44.642Z,46
2023-01-29T13:54:44.642Z,49
2023-01-29T13:55:44.628Z,48
2023-01-29T13:56:44.642Z,49
2023-01-29T13:57:44.642Z,44
2023-01-29T13:58:44.642Z,43
2023-01-29T13:59:44.628Z,45
2023-01-29T14:00:44.642Z,42
2023-01-29T14:01:44.643Z,42
2023-01-29T14:02:44.642Z,33
2023-01-29T14:03:44.628Z,23
2023-01-29T14:04:44.643Z,26
2023-01-29T14:05:44.643Z,23
2023-01-29T14:06:44.629Z,33
2023-01-29T14:07:44.629Z,32
2023-01-29T14:08:44.643Z,30
2023-01-29T14:09:44.644Z,24
2023-01-29T14:10:44.629Z,21
2023-01-29T14:11:44.629Z,30
2023-01-29T14:12:44.643Z,24
2023-01-29T14:13:44.643Z,23
2023-01-29T14:14:44.629Z,24
2023-01-29T14:15:44.644Z,27
2023-01-29T14:16:44.644Z,26
2023-01-29T14:17:44.644Z,25